createdAt,value
2022-11-28T00:01:05.984Z,-17.12
2022-11-28T00:04:11.135Z,-17.09
2022-11-28T00:07:15.410Z,-17.04
2022-11-28T00:10:18.805Z,-16.94
2022-11-28T00:13:21.855Z,-16.79
2022-11-28T00:16:26.247Z,-16.78
2022-11-28T00:19:29.960Z,-16.72
2022-11-28T00:22:33.616Z,-16.85
2022-11-28T00:25:37.597Z,-16.86
2022-11-28T00:28:41.941Z,-16.96
2022-11-28T00:31:44.963Z,-16.90
2022-11-28T00:34:49.187Z,-16.97
2022-11-28T00:37:52.249Z,-16.90
2022-11-28T00:41:14.492Z,-16.88
2022-11-28T00:44:18.199Z,-16.82
2022-11-28T00:47:22.003Z,-16.87
2022-11-28T00:50:26.146Z,-16.74
2022-11-28T00:53:30.016Z,-16.67
2022-11-28T00:56:38.956Z,-16.73
2022-11-28T00:59:42.910Z,-16.76
2022-11-28T01:02:46.741Z,-17.02
2022-11-28T01:05:50.780Z,-17.17
2022-11-28T01:08:55.388Z,-17.30
2022-11-28T01:11:59.464Z,-17.08
2022-11-28T01:15:04.171Z,-16.79
2022-11-28T01:18:08.176Z,-16.69
2022-11-28T01:21:11.932Z,-16.71
2022-11-28T01:24:16.747Z,-16.86
2022-11-28T01:27:20.722Z,-16.63
2022-11-28T01:30:25.267Z,-16.90
2022-11-28T01:33:28.389Z,-16.55
2022-11-28T01:36:32.837Z,-16.41
2022-11-28T01:39:37.472Z,-16.49
2022-11-28T01:42:41.138Z,-16.32
2022-11-28T01:45:45.417Z,-16.27
2022-11-28T01:48:49.206Z,-16.47
2022-11-28T01:51:59.096Z,-16.51
2022-11-28T01:55:04.540Z,-16.64
2022-11-28T01:58:08.706Z,-16.65
2022-11-28T02:01:13.985Z,-16.56
2022-11-28T02:04:17.439Z,-16.43
2022-11-28T02:07:21.356Z,-16.96
2022-11-28T02:10:44.718Z,-16.65
2022-11-28T02:14:16.635Z,-16.68
2022-11-28T02:17:35.023Z,-16.61
2022-11-28T02:20:44.794Z,-16.54
2022-11-28T02:24:26.040Z,-16.17
2022-11-28T02:27:52.510Z,-16.04
2022-11-28T02:31:26.445Z,-15.94
2022-11-28T02:34:55.761Z,-15.86
2022-11-28T02:38:29.711Z,-16.07
2022-11-28T02:41:43.502Z,-16.16
2022-11-28T02:45:25.535Z,-15.97
2022-11-28T02:48:54.109Z,-15.78
2022-11-28T02:52:02.872Z,-15.49
2022-11-28T02:55:08.185Z,-15.97
2022-11-28T02:58:12.836Z,-15.77
2022-11-28T03:01:27.684Z,-15.73
2022-11-28T03:04:50.737Z,-15.59
2022-11-28T03:08:01.058Z,-15.90
2022-11-28T03:11:16.244Z,-15.62
2022-11-28T03:14:32.298Z,-15.90
2022-11-28T03:18:08.635Z,-15.78
2022-11-28T03:21:24.130Z,-15.99
2022-11-28T03:24:51.426Z,-16.08
2022-11-28T03:28:00.917Z,-15.59
2022-11-28T03:31:11.884Z,-15.11
2022-11-28T03:34:18.743Z,-15.14
2022-11-28T03:37:26.476Z,-15.59
2022-11-28T03:40:37.122Z,-15.61
2022-11-28T03:43:47.319Z,-16.14
2022-11-28T03:46:52.637Z,-16.20
2022-11-28T03:50:02.775Z,-15.94
2022-11-28T03:53:20.970Z,-15.50
2022-11-28T03:56:37.332Z,-15.17
2022-11-28T03:59:47.683Z,-15.56
2022-11-28T04:02:58.230Z,-15.92
2022-11-28T04:06:15.534Z,-15.79
2022-11-28T04:09:26.763Z,-15.57
2022-11-28T04:12:40.701Z,-15.65
2022-11-28T04:15:55.691Z,-14.98
2022-11-28T04:19:22.124Z,-14.89
2022-11-28T04:22:32.396Z,-15.38
2022-11-28T04:25:40.828Z,-15.30
2022-11-28T04:28:47.092Z,-15.09
2022-11-28T04:31:54.607Z,-15.51
2022-11-28T04:35:10.395Z,-15.14
2022-11-28T04:38:15.425Z,-15.18
2022-11-28T04:41:23.907Z,-14.97
2022-11-28T04:45:02.937Z,-14.57
2022-11-28T04:48:06.783Z,-14.51
2022-11-28T04:51:45.656Z,-14.84
2022-11-28T04:55:27.321Z,-14.50
2022-11-28T04:58:52.065Z,-14.57
2022-11-28T05:01:59.152Z,-14.53
2022-11-28T05:05:07.389Z,-14.83
2022-11-28T05:08:11.098Z,-14.80
2022-11-28T05:11:14.031Z,-14.92
2022-11-28T05:14:19.715Z,-15.46
2022-11-28T05:17:23.564Z,-14.68
2022-11-28T05:20:28.737Z,-14.69
2022-11-28T05:23:32.526Z,-14.42
2022-11-28T05:26:36.966Z,-13.97
2022-11-28T05:29:48.108Z,-14.70
2022-11-28T05:32:54.862Z,-14.45
2022-11-28T05:36:02.903Z,-14.47
2022-11-28T05:39:06.931Z,-13.89
2022-11-28T05:42:11.075Z,-13.78
2022-11-28T05:45:15.337Z,-13.52
2022-11-28T05:48:19.272Z,-13.41
2022-11-28T05:51:22.699Z,-13.58
2022-11-28T05:54:26.532Z,-14.58
2022-11-28T05:57:32.958Z,-14.75
2022-11-28T06:00:36.909Z,-14.33
2022-11-28T06:03:41.458Z,-14.43
2022-11-28T06:06:44.560Z,-13.80
2022-11-28T06:09:48.783Z,-13.57
2022-11-28T06:12:52.283Z,-12.89
2022-11-28T06:15:55.632Z,-13.74
2022-11-28T06:19:04.347Z,-13.78
2022-11-28T06:22:08.752Z,-13.80
2022-11-28T06:25:12.449Z,-13.09
2022-11-28T06:28:16.460Z,-13.22
2022-11-28T06:31:22.447Z,-13.54
2022-11-28T06:34:25.861Z,-13.62
2022-11-28T06:37:29.594Z,-14.28
2022-11-28T06:40:33.725Z,-14.07
2022-11-28T06:43:37.784Z,-14.19
2022-11-28T06:46:42.442Z,-13.12
2022-11-28T06:49:45.503Z,-13.02
2022-11-28T06:52:49.611Z,-13.99
2022-11-28T06:55:52.704Z,-14.55
2022-11-28T06:58:58.614Z,-15.21
2022-11-28T07:02:07.427Z,-15.18
2022-11-28T07:05:11.353Z,-15.13
2022-11-28T07:08:14.447Z,-15.38
2022-11-28T07:11:24.846Z,-15.65
2022-11-28T07:14:29.687Z,-16.42
2022-11-28T07:17:33.340Z,-16.41
2022-11-28T07:20:36.988Z,-16.29
2022-11-28T07:23:40.384Z,-16.10
2022-11-28T07:26:43.981Z,-16.21
2022-11-28T07:29:49.480Z,-16.79
2022-11-28T07:32:53.228Z,-17.04
2022-11-28T07:36:00.166Z,-16.97
2022-11-28T07:39:06.444Z,-16.86
2022-11-28T07:42:10.562Z,-16.84
2022-11-28T07:45:14.281Z,-16.80
2022-11-28T07:48:18.099Z,-16.95
2022-11-28T07:51:27.259Z,-16.84
2022-11-28T07:54:31.801Z,-16.64
2022-11-28T07:57:34.849Z,-16.75
2022-11-28T08:00:38.381Z,-16.57
2022-11-28T08:03:42.378Z,-16.50
2022-11-28T08:06:46.468Z,-16.72
2022-11-28T08:09:50.172Z,-16.83
2022-11-28T08:12:54.363Z,-16.95
2022-11-28T08:15:57.686Z,-17.04
2022-11-28T08:19:04.388Z,-17.26
2022-11-28T08:22:08.092Z,-17.24
2022-11-28T08:25:11.516Z,-17.14
2022-11-28T08:28:14.728Z,-16.97
2022-11-28T08:31:23.397Z,-17.20
2022-11-28T08:34:26.708Z,-17.41
2022-11-28T08:37:30.341Z,-17.52
2022-11-28T08:40:34.584Z,-17.57
2022-11-28T08:43:39.701Z,-17.52
2022-11-28T08:46:42.910Z,-17.29
2022-11-28T08:49:47.350Z,-17.38
2022-11-28T08:52:50.599Z,-17.55
2022-11-28T08:55:53.897Z,-17.45
2022-11-28T08:58:57.672Z,-17.33
2022-11-28T09:02:01.263Z,-17.38
2022-11-28T09:05:04.592Z,-17.40
2022-11-28T09:08:11.631Z,-17.31
2022-11-28T09:11:18.101Z,-17.35
2022-11-28T09:14:22.734Z,-17.41
2022-11-28T09:17:25.772Z,-17.55
2022-11-28T09:20:29.852Z,-17.70
2022-11-28T09:23:33.501Z,-17.85
2022-11-28T09:26:37.060Z,-17.94
2022-11-28T09:29:40.978Z,-18.08
2022-11-28T09:32:44.538Z,-17.92
2022-11-28T09:35:47.616Z,-18.01
2022-11-28T09:38:51.225Z,-18.09
2022-11-28T09:42:07.479Z,-18.20
2022-11-28T09:45:20.389Z,-18.47
2022-11-28T09:48:31.141Z,-18.54
2022-11-28T09:52:12.138Z,-18.48
2022-11-28T09:55:24.575Z,-18.48
2022-11-28T09:58:51.157Z,-18.60
2022-11-28T10:02:06.591Z,-18.60
2022-11-28T10:05:21.247Z,-18.71
2022-11-28T10:09:11.583Z,-18.68
2022-11-28T10:12:32.996Z,-18.82
2022-11-28T10:16:06.293Z,-18.69
2022-11-28T10:20:02.999Z,-18.83
2022-11-28T10:23:35.164Z,-18.68
2022-11-28T10:26:42.322Z,-18.83
2022-11-28T10:29:53.188Z,-18.68
2022-11-28T10:33:26.179Z,-18.45
2022-11-28T10:36:52.836Z,-18.77
2022-11-28T10:39:59.643Z,-18.79
2022-11-28T10:43:18.114Z,-18.98
2022-11-28T10:46:36.927Z,-18.85
2022-11-28T10:50:09.614Z,-18.80
2022-11-28T10:53:19.632Z,-18.82
2022-11-28T10:56:31.550Z,-18.92
2022-11-28T10:59:54.640Z,-18.76
2022-11-28T11:03:03.129Z,-18.70
2022-11-28T11:06:06.609Z,-18.75
2022-11-28T11:09:13.690Z,-18.78
2022-11-28T11:12:25.338Z,-19.00
2022-11-28T11:15:33.284Z,-18.99
2022-11-28T11:18:55.366Z,-18.94
2022-11-28T11:22:19.610Z,-19.04
2022-11-28T11:25:23.820Z,-19.07
2022-11-28T11:28:32.664Z,-19.14
2022-11-28T11:31:45.113Z,-19.06
2022-11-28T11:34:49.526Z,-19.10
2022-11-28T11:37:53.493Z,-19.27
2022-11-28T11:40:57.218Z,-19.34
2022-11-28T11:44:15.262Z,-19.27
2022-11-28T11:47:19.723Z,-19.37
2022-11-28T11:50:26.243Z,-19.38
2022-11-28T11:53:29.410Z,-19.42
2022-11-28T11:56:37.879Z,-19.48
2022-11-28T11:59:49.817Z,-19.42
2022-11-28T12:03:04.316Z,-19.58
2022-11-28T12:06:25.852Z,-19.54
2022-11-28T12:09:47.788Z,-19.72
2022-11-28T12:12:51.126Z,-19.70
2022-11-28T12:16:06.189Z,-19.72
2022-11-28T12:19:12.202Z,-19.68
2022-11-28T12:22:30.915Z,-19.60
2022-11-28T12:26:02.340Z,-19.48
2022-11-28T12:29:36.996Z,-19.43
2022-11-28T12:33:10.213Z,-19.90
2022-11-28T12:36:47.085Z,-19.77
2022-11-28T12:40:06.185Z,-19.56
2022-11-28T12:43:28.103Z,-19.64
2022-11-28T12:46:34.821Z,-19.63
2022-11-28T12:50:15.066Z,-19.83
2022-11-28T12:53:42.511Z,-19.88
2022-11-28T12:57:08.408Z,-19.76
2022-11-28T13:00:24.266Z,-19.62
2022-11-28T13:03:43.475Z,-19.78
2022-11-28T13:07:11.514Z,-19.57
2022-11-28T13:10:32.436Z,-19.78
2022-11-28T13:13:48.106Z,-19.85
2022-11-28T13:16:58.150Z,-19.94
2022-11-28T13:20:28.652Z,-19.59
2022-11-28T13:23:59.875Z,-19.57
2022-11-28T13:27:33.012Z,-19.72
2022-11-28T13:30:52.925Z,-19.83
2022-11-28T13:33:57.663Z,-19.69
2022-11-28T18:21:54.191Z,-22.10
2022-11-28T18:24:58.176Z,-22.13
2022-11-28T18:28:01.822Z,-21.93
2022-11-28T18:31:20.398Z,-21.90
2022-11-28T18:34:25.276Z,-21.99
2022-11-28T18:37:28.246Z,-22.09
2022-11-28T18:40:32.025Z,-22.09
2022-11-28T18:43:37.538Z,-22.08
2022-11-28T18:46:40.705Z,-22.09
2022-11-28T18:49:44.230Z,-22.18
2022-11-28T18:52:49.623Z,-22.10
2022-11-28T18:56:06.195Z,-22.10
2022-11-28T18:59:11.216Z,-22.26
2022-11-28T19:02:16.922Z,-22.18
2022-11-28T19:05:20.022Z,-22.29
2022-11-28T19:08:24.014Z,-22.41
2022-11-28T19:11:29.188Z,-22.59
2022-11-28T19:14:33.279Z,-22.38
2022-11-28T19:17:38.339Z,-22.16
2022-11-28T19:20:43.936Z,-22.34
2022-11-28T19:23:49.097Z,-22.46
2022-11-28T19:26:53.073Z,-22.43
2022-11-28T19:29:57.500Z,-22.49
2022-11-28T19:33:01.244Z,-22.38
2022-11-28T19:36:11.182Z,-22.36
2022-11-28T19:39:22.755Z,-22.25
2022-11-28T19:42:26.524Z,-22.56
2022-11-28T19:45:30.241Z,-22.57
2022-11-28T19:48:36.413Z,-22.46
2022-11-28T19:51:39.413Z,-22.54
2022-11-28T19:54:43.597Z,-22.54
2022-11-28T19:57:48.520Z,-22.48
2022-11-28T20:00:52.017Z,-22.61
2022-11-28T20:03:55.773Z,-22.64
2022-11-28T20:06:59.314Z,-22.37
2022-11-28T20:10:03.255Z,-22.38
2022-11-28T20:13:07.472Z,-22.44
2022-11-28T20:16:12.164Z,-22.64
2022-11-28T20:19:15.714Z,-22.57
2022-11-28T20:22:23.367Z,-22.71
2022-11-28T20:25:27.534Z,-22.70
2022-11-28T20:28:33.566Z,-22.39
2022-11-28T20:31:42.924Z,-22.48
2022-11-28T20:34:47.088Z,-22.42
2022-11-28T20:37:51.467Z,-22.43
2022-11-28T20:41:02.856Z,-22.64
2022-11-28T20:44:06.237Z,-22.64
2022-11-28T20:47:11.517Z,-22.75
2022-11-28T20:50:15.221Z,-22.59
2022-11-28T20:53:22.174Z,-22.86
2022-11-28T20:56:31.207Z,-22.79
2022-11-28T20:59:34.303Z,-22.62
2022-11-28T21:02:37.479Z,-22.59
2022-11-28T21:05:40.633Z,-22.58
2022-11-28T21:08:44.000Z,-22.69
2022-11-28T21:11:58.437Z,-22.71
2022-11-28T21:15:02.682Z,-22.80
2022-11-28T21:18:05.898Z,-22.76
2022-11-28T21:21:30.739Z,-22.79
2022-11-28T21:24:33.693Z,-22.85
2022-11-28T21:27:37.209Z,-23.06
2022-11-28T21:30:43.047Z,-23.00
2022-11-28T21:33:50.896Z,-22.84
2022-11-28T21:36:55.108Z,-22.92
2022-11-28T21:39:58.830Z,-23.00
2022-11-28T21:43:01.884Z,-23.12
2022-11-28T21:46:06.487Z,-23.04
2022-11-28T21:49:09.692Z,-22.89
2022-11-28T21:52:17.580Z,-23.00
2022-11-28T21:55:21.441Z,-23.25
2022-11-28T21:58:26.820Z,-23.20
2022-11-28T22:01:30.600Z,-23.05
2022-11-28T22:04:34.050Z,-22.99
2022-11-28T22:07:37.502Z,-22.96
2022-11-28T22:10:41.646Z,-22.99
2022-11-28T22:13:48.686Z,-22.95
2022-11-28T22:16:52.320Z,-22.97
2022-11-28T22:19:55.765Z,-22.87
2022-11-28T22:22:59.579Z,-22.88
2022-11-28T22:26:04.938Z,-22.95
2022-11-28T22:29:09.711Z,-22.93
2022-11-28T22:32:14.051Z,-22.89
2022-11-28T22:35:17.343Z,-23.00
2022-11-28T22:38:21.246Z,-23.13
2022-11-28T22:41:28.994Z,-23.12
2022-11-28T22:44:34.955Z,-23.13
2022-11-28T22:47:38.171Z,-23.12
2022-11-28T22:50:41.943Z,-23.06
2022-11-28T22:53:46.221Z,-22.95
2022-11-28T22:56:49.920Z,-22.93
2022-11-28T22:59:54.302Z,-22.83
2022-11-28T23:02:58.173Z,-22.75
2022-11-28T23:06:10.054Z,-22.81
2022-11-28T23:09:14.937Z,-23.04
2022-11-28T23:12:20.955Z,-22.86
2022-11-28T23:15:24.791Z,-22.76
2022-11-28T23:18:28.526Z,-22.70
2022-11-28T23:21:37.272Z,-22.66
2022-11-28T23:24:40.455Z,-22.68
2022-11-28T23:27:43.616Z,-22.66
2022-11-28T23:30:47.369Z,-22.77
2022-11-28T23:33:51.721Z,-22.66
2022-11-28T23:36:55.375Z,-22.59
2022-11-28T23:39:58.295Z,-22.58
2022-11-28T23:43:01.947Z,-22.60
2022-11-28T23:46:05.744Z,-22.81
2022-11-28T23:49:10.703Z,-22.74
2022-11-28T23:52:13.660Z,-22.72
2022-11-28T23:55:17.106Z,-22.80
2022-11-28T23:58:20.190Z,-22.89
